Time;durP1;ratioP1;P1;durP2;ratioP2;P2;SDS_P1;SDS_P2;PMS_P1;PMS_P2;Temp;Humidity;BMP_temperature;BMP_pressure;BME280_temperature;BME280_humidity;BME280_pressure;Samples;Min_cycle;Max_cycle;Signal;HPM_P1;HPM_P2
2023/05/01 00:01:10;;;;;;;;;16.25;15.75;;;;;20.77;38.52;101089.44;5073740;28;59318;-72
2023/05/01 00:03:36;;;;;;;;;22.25;17.00;;;;;20.77;38.62;101095.63;5081416;27;45503;-72
2023/05/01 00:06:04;;;;;;;;;16.50;15.75;;;;;20.77;38.62;101092.97;5054647;28;45514;-71
2023/05/01 00:08:32;;;;;;;;;20.25;15.50;;;;;20.75;38.77;101078.03;5071303;28;45433;-72
2023/05/01 00:11:02;;;;;;;;;19.50;14.50;;;;;20.77;38.46;101081.44;5072067;28;46003;-71
2023/05/01 00:13:28;;;;;;;;;21.00;17.75;;;;;20.76;38.66;101082.41;5068900;27;45365;-71
2023/05/01 00:15:54;;;;;;;;;22.75;17.50;;;;;20.77;38.40;101081.44;5072418;27;45524;-71
2023/05/01 00:18:19;;;;;;;;;18.25;16.00;;;;;20.78;39.19;101085.81;5068986;27;45448;-72
2023/05/01 00:20:45;;;;;;;;;17.50;14.25;;;;;20.76;38.83;101085.91;5068587;27;54545;-71
2023/05/01 00:23:11;;;;;;;;;18.00;15.50;;;;;20.77;38.50;101082.31;5084385;27;45464;-72
2023/05/01 00:25:37;;;;;;;;;17.75;16.25;;;;;20.77;38.55;101074.34;5076269;28;45496;-72
2023/05/01 00:28:02;;;;;;;;;20.00;16.00;;;;;20.75;38.96;101070.06;5081534;27;47630;-71
2023/05/01 00:30:27;;;;;;;;;22.75;15.25;;;;;20.76;38.64;101077.94;5068636;27;45501;-71
2023/05/01 00:32:53;;;;;;;;;14.75;14.00;;;;;20.76;38.91;101069.97;5073630;27;45430;-71
2023/05/01 00:35:18;;;;;;;;;18.50;13.00;;;;;20.76;38.41;101071.78;5067268;27;45550;-71
2023/05/01 00:37:43;;;;;;;;;20.75;16.00;;;;;20.75;38.49;101065.63;5063557;28;72004;-72
2023/05/01 00:40:09;;;;;;;;;19.00;15.50;;;;;20.77;38.85;101066.38;5072162;28;54914;-72
2023/05/01 00:42:36;;;;;;;;;18.25;15.50;;;;;20.76;38.78;101061.13;5076818;27;45437;-72
2023/05/01 00:45:01;;;;;;;;;20.25;14.25;;;;;20.77;38.85;101063.69;5076093;28;45506;-71
2023/05/01 00:47:27;;;;;;;;;17.00;13.00;;;;;20.76;38.95;101059.31;5080026;27;46067;-71
2023/05/01 00:49:53;;;;;;;;;17.50;15.00;;;;;20.74;38.87;101055.91;5076072;27;45234;-71
2023/05/01 00:52:18;;;;;;;;;16.00;14.25;;;;;20.76;38.82;101055.81;5078100;28;62512;-71
2023/05/01 00:54:50;;;;;;;;;18.50;16.50;;;;;20.75;38.85;101057.63;5075947;27;70346;-72
2023/05/01 00:57:15;;;;;;;;;18.00;13.50;;;;;20.75;38.51;101052.31;5056942;28;47260;-71
2023/05/01 00:59:41;;;;;;;;;19.00;19.00;;;;;20.75;38.56;101051.44;5071301;28;71002;-72
2023/05/01 01:02:06;;;;;;;;;14.25;13.50;;;;;20.76;38.58;101045.19;5078688;27;45559;-72
2023/05/01 01:04:33;;;;;;;;;18.00;16.25;;;;;20.73;38.58;101037.38;5071820;28;73015;-71
2023/05/01 01:07:43;;;;;;;;;15.25;13.75;;;;;20.76;38.96;101037.19;5056856;28;47310;-72
2023/05/01 01:10:30;;;;;;;;;18.25;14.75;;;;;20.75;39.06;101031.03;5075648;27;70302;-71
2023/05/01 01:12:55;;;;;;;;;15.00;14.75;;;;;20.75;38.56;101030.16;5064845;28;45299;-72
2023/05/01 01:15:49;;;;;;;;;22.00;15.25;;;;;20.74;38.71;101029.31;5076718;27;45415;-71
2023/05/01 01:18:32;;;;;;;;;16.25;14.25;;;;;20.73;39.01;101027.59;5050170;28;48264;-72
2023/05/01 01:21:15;;;;;;;;;17.00;14.50;;;;;20.74;38.77;101026.66;5053703;28;45573;-71
2023/05/01 01:23:40;;;;;;;;;16.00;14.50;;;;;20.73;39.00;101022.28;5076300;28;45497;-71
2023/05/01 01:26:37;;;;;;;;;18.00;15.00;;;;;20.73;38.67;101016.13;5071615;27;45546;-72
2023/05/01 01:29:26;;;;;;;;;16.25;15.25;;;;;20.73;39.01;101016.13;5063989;28;45506;-72
2023/05/01 01:32:23;;;;;;;;;18.25;14.50;;;;;20.72;38.81;101009.94;5072588;27;45799;-71
2023/05/01 01:34:51;;;;;;;;;16.75;15.00;;;;;20.70;38.50;101006.53;5075579;28;45461;-72
2023/05/01 01:37:20;;;;;;;;;19.25;16.75;;;;;20.72;39.01;101009.94;5078459;28;45465;-71
2023/05/01 01:39:51;;;;;;;;;17.50;14.75;;;;;20.71;39.09;101002.91;5068360;28;45283;-71
2023/05/01 01:42:20;;;;;;;;;13.25;12.75;;;;;20.72;38.90;101003.78;5078170;28;45829;-71
2023/05/01 01:44:52;;;;;;;;;16.00;13.75;;;;;20.70;39.16;101001.22;5076460;27;45485;-71
2023/05/01 01:47:19;;;;;;;;;18.50;15.25;;;;;20.71;39.08;101004.72;5078313;27;45555;-72
2023/05/01 01:49:48;;;;;;;;;17.00;14.50;;;;;20.71;38.78;101002.91;5077226;28;45460;-71
2023/05/01 01:52:15;;;;;;;;;18.25;14.00;;;;;20.72;38.97;101006.44;5074762;28;45447;-71
2023/05/01 01:54:46;;;;;;;;;15.00;14.00;;;;;20.70;39.01;100992.38;5077587;27;45393;-72
2023/05/01 01:57:13;;;;;;;;;19.75;16.00;;;;;20.70;38.77;100998.56;5077858;27;45304;-71
2023/05/01 01:59:39;;;;;;;;;17.00;12.25;;;;;20.70;39.10;101006.53;5062522;28;46806;-72
2023/05/01 02:02:06;;;;;;;;;17.00;13.75;;;;;20.70;38.88;100998.56;5080617;27;45840;-72
2023/05/01 02:04:32;;;;;;;;;11.75;11.50;;;;;20.69;38.84;101010.16;5076133;27;56803;-71
2023/05/01 02:06:59;;;;;;;;;17.75;15.00;;;;;20.71;38.66;101007.38;5063246;28;68528;-71
2023/05/01 02:09:25;;;;;;;;;14.50;13.75;;;;;20.65;39.04;100996.19;5060978;28;48346;-71
2023/05/01 02:11:52;;;;;;;;;14.75;12.75;;;;;20.71;38.74;101007.38;5081811;27;45727;-71
2023/05/01 02:14:19;;;;;;;;;14.75;12.00;;;;;20.69;39.06;101014.63;5080977;27;45301;-71
2023/05/01 02:16:45;;;;;;;;;12.25;11.00;;;;;20.70;38.88;101011.88;5077886;27;45404;-71
2023/05/01 02:19:12;;;;;;;;;13.25;11.00;;;;;20.66;38.91;101011.22;5080021;28;67068;-71
2023/05/01 02:21:38;;;;;;;;;12.00;12.00;;;;;20.70;38.72;101017.19;5076627;27;68118;-71
2023/05/01 02:24:04;;;;;;;;;15.75;13.75;;;;;20.70;39.17;101019.84;5079228;27;53573;-72
2023/05/01 02:26:30;;;;;;;;;16.00;13.25;;;;;20.69;39.03;101014.63;5079298;27;45246;-72
2023/05/01 02:28:57;;;;;;;;;12.00;11.25;;;;;20.65;38.62;101004.16;5088281;27;45347;-72
2023/05/01 02:31:22;;;;;;;;;13.50;13.50;;;;;20.69;39.04;101011.97;5076058;27;45858;-71
2023/05/01 02:33:47;;;;;;;;;16.50;13.00;;;;;20.68;38.84;101016.41;5084193;27;45339;-71
2023/05/01 02:36:13;;;;;;;;;12.00;12.00;;;;;20.69;39.12;101014.63;5073637;27;70364;-71
2023/05/01 02:38:38;;;;;;;;;15.00;12.75;;;;;20.69;38.69;101014.63;5056762;28;48196;-72
2023/05/01 02:41:05;;;;;;;;;14.00;13.75;;;;;20.68;38.80;101021.72;5073556;27;45308;-72
2023/05/01 02:43:32;;;;;;;;;12.75;11.00;;;;;20.67;38.38;101012.91;5079244;27;45681;-71
2023/05/01 02:45:58;;;;;;;;;11.00;10.75;;;;;20.69;38.69;101019.94;5077693;27;45405;-72
2023/05/01 02:48:26;;;;;;;;;16.00;12.75;;;;;20.66;38.70;101018.31;5069941;28;47207;-71
2023/05/01 02:50:52;;;;;;;;;14.75;14.75;;;;;20.66;39.25;101005.88;5071449;27;45226;-71
2023/05/01 02:53:19;;;;;;;;;14.25;11.00;;;;;20.67;39.21;101012.91;5069065;27;45375;-71
2023/05/01 02:55:44;;;;;;;;;10.25;8.50;;;;;20.68;38.72;101013.75;5069434;27;53759;-72
2023/05/01 02:58:19;;;;;;;;;15.00;13.25;;;;;20.68;38.81;101019.06;5073524;27;45559;-72
2023/05/01 03:00:46;;;;;;;;;14.25;12.00;;;;;20.66;38.96;101019.19;5073434;27;45451;-72
2023/05/01 03:03:12;;;;;;;;;13.75;11.00;;;;;20.67;38.70;101018.22;5077501;27;45485;-72
2023/05/01 03:05:38;;;;;;;;;12.25;10.25;;;;;20.66;39.12;101011.22;5076368;27;59166;-72
2023/05/01 03:08:04;;;;;;;;;15.25;13.50;;;;;20.67;39.03;101012.91;5082182;27;45384;-72
2023/05/01 03:10:30;;;;;;;;;12.75;10.00;;;;;20.65;38.74;101006.00;5078331;27;45349;-71
2023/05/01 03:12:55;;;;;;;;;16.25;11.50;;;;;20.67;38.76;101014.72;5080899;27;45286;-72
2023/05/01 03:15:20;;;;;;;;;12.75;12.00;;;;;20.64;38.98;101007.78;5077876;28;46445;-71
2023/05/01 03:17:46;;;;;;;;;12.00;11.25;;;;;20.65;38.71;101003.31;5069934;27;60265;-71
2023/05/01 03:20:11;;;;;;;;;12.25;11.75;;;;;20.66;38.72;101010.34;5075721;27;45347;-72
2023/05/01 03:22:37;;;;;;;;;14.75;12.25;;;;;20.60;38.95;100998.25;5078650;28;45245;-71
2023/05/01 03:25:03;;;;;;;;;13.50;11.25;;;;;20.66;39.01;101002.34;5078089;27;45238;-72
2023/05/01 03:27:29;;;;;;;;;12.25;12.00;;;;;20.66;39.14;101007.69;5077288;27;46224;-72
2023/05/01 03:29:55;;;;;;;;;14.25;10.00;;;;;20.65;39.20;101013.97;5077162;27;45448;-71
2023/05/01 03:32:21;;;;;;;;;14.50;11.25;;;;;20.64;39.03;101013.09;5073883;28;45482;-71
2023/05/01 03:34:46;;;;;;;;;11.75;11.50;;;;;20.62;39.33;101009.69;5065986;27;45391;-72
2023/05/01 03:37:12;;;;;;;;;11.25;9.25;;;;;20.62;39.20;101009.69;5071014;28;47033;-72
2023/05/01 03:39:37;;;;;;;;;12.75;11.00;;;;;20.63;38.98;101010.56;5061316;27;56822;-71
2023/05/01 03:42:02;;;;;;;;;12.00;11.50;;;;;20.62;38.76;101007.03;5079366;28;60459;-72
2023/05/01 03:44:28;;;;;;;;;11.25;10.00;;;;;20.63;38.95;101008.75;5078869;27;72223;-71
2023/05/01 03:46:53;;;;;;;;;10.75;9.50;;;;;20.64;38.89;101009.59;5067725;27;75349;-72
2023/05/01 03:49:18;;;;;;;;;11.50;11.00;;;;;20.63;38.83;101021.19;5075966;27;45255;-72
2023/05/01 03:51:44;;;;;;;;;10.25;9.75;;;;;20.63;39.17;101016.72;5076815;27;45260;-72
2023/05/01 03:54:09;;;;;;;;;10.50;10.50;;;;;20.63;39.01;101019.38;5080664;27;59137;-71
2023/05/01 03:56:35;;;;;;;;;12.25;11.00;;;;;20.63;39.11;101023.84;5078144;27;59966;-71
2023/05/01 03:59:01;;;;;;;;;11.25;11.00;;;;;20.62;38.80;101019.47;5079351;27;45814;-72
2023/05/01 04:01:26;;;;;;;;;11.00;10.00;;;;;20.63;39.22;101024.69;5075207;27;45533;-71
2023/05/01 04:03:52;;;;;;;;;13.25;13.00;;;;;20.62;38.84;101019.47;5079395;27;71603;-71
2023/05/01 04:06:18;;;;;;;;;12.25;11.25;;;;;20.62;38.81;101022.97;5075918;27;47112;-72
2023/05/01 04:08:43;;;;;;;;;12.00;11.00;;;;;20.58;38.86;101010.81;5080045;27;45425;-72
2023/05/01 04:11:09;;;;;;;;;12.75;10.00;;;;;20.61;38.95;101013.31;5075406;27;67880;-72
2023/05/01 04:13:35;;;;;;;;;15.00;10.25;;;;;20.61;38.96;101020.38;5079826;27;45506;-71
2023/05/01 04:16:00;;;;;;;;;9.00;9.00;;;;;20.62;38.63;101020.31;5074122;27;45511;-71
2023/05/01 04:18:26;;;;;;;;;12.00;9.50;;;;;20.60;39.24;101010.72;5080955;27;45339;-72
2023/05/01 04:20:51;;;;;;;;;15.75;11.00;;;;;20.60;39.12;101021.34;5073209;27;52690;-71
2023/05/01 04:23:16;;;;;;;;;14.00;11.00;;;;;20.60;38.99;101022.19;5077895;28;59788;-71
2023/05/01 04:25:42;;;;;;;;;10.50;10.00;;;;;20.58;39.33;101018.78;5074284;27;48477;-71
2023/05/01 04:28:09;;;;;;;;;12.75;11.00;;;;;20.59;39.24;101016.97;5078672;27;61465;-72
2023/05/01 04:30:35;;;;;;;;;11.25;9.25;;;;;20.60;39.50;101024.84;5073596;27;45265;-71
2023/05/01 04:33:01;;;;;;;;;14.00;10.50;;;;;20.60;38.97;101024.00;5076850;27;45250;-72
2023/05/01 04:35:26;;;;;;;;;11.75;11.25;;;;;20.60;39.30;101035.50;5075732;28;45429;-71
2023/05/01 04:37:51;;;;;;;;;15.25;12.50;;;;;20.59;39.44;101033.81;5074253;27;49528;-72
2023/05/01 04:40:17;;;;;;;;;12.25;11.00;;;;;20.59;39.25;101027.59;5071947;27;65251;-71
2023/05/01 04:42:42;;;;;;;;;12.00;9.50;;;;;20.58;39.14;101032.09;5075546;27;71748;-71
2023/05/01 04:45:08;;;;;;;;;11.00;11.00;;;;;20.60;38.95;101040.81;5073690;27;46029;-71
2023/05/01 04:47:33;;;;;;;;;14.50;12.00;;;;;20.58;39.24;101036.56;5057903;28;46566;-71
2023/05/01 04:49:59;;;;;;;;;11.75;10.75;;;;;20.59;38.91;101040.91;5073263;28;45612;-71
2023/05/01 04:52:24;;;;;;;;;12.50;11.25;;;;;20.59;38.97;101036.47;5075228;27;45485;-71
2023/05/01 04:54:49;;;;;;;;;11.00;10.75;;;;;20.58;39.13;101040.06;5074396;27;47088;-72
2023/05/01 04:57:15;;;;;;;;;13.75;13.25;;;;;20.58;39.05;101040.06;5075126;27;45424;-71
2023/05/01 04:59:40;;;;;;;;;15.00;12.00;;;;;20.57;39.26;101035.69;5073952;27;45613;-71
2023/05/01 05:02:06;;;;;;;;;16.75;12.25;;;;;20.53;39.05;101030.69;5078300;27;69095;-71
2023/05/01 05:04:32;;;;;;;;;12.50;11.00;;;;;20.57;39.15;101041.00;5075271;27;46371;-71
2023/05/01 05:06:57;;;;;;;;;14.25;12.25;;;;;20.56;39.51;101039.31;5077822;28;45956;-71
2023/05/01 05:09:23;;;;;;;;;15.75;13.25;;;;;20.57;39.10;101043.66;5077886;27;45289;-72
2023/05/01 05:11:49;;;;;;;;;12.00;11.00;;;;;20.56;39.18;101047.28;5074426;27;59087;-71
2023/05/01 05:14:14;;;;;;;;;16.75;13.00;;;;;20.56;39.57;101051.75;5078826;28;45505;-72
2023/05/01 05:16:39;;;;;;;;;15.00;10.25;;;;;20.57;39.58;101048.97;5075757;27;45285;-71
2023/05/01 05:19:05;;;;;;;;;14.75;12.50;;;;;20.56;39.41;101052.59;5077889;28;45778;-72
2023/05/01 05:21:30;;;;;;;;;11.00;11.00;;;;;20.58;39.42;101056.00;5074840;27;45273;-72
2023/05/01 05:23:56;;;;;;;;;13.50;12.00;;;;;20.56;39.31;101052.59;5078937;28;45588;-71
2023/05/01 05:26:21;;;;;;;;;14.00;11.75;;;;;20.57;39.73;101053.44;5072336;27;45324;-71
2023/05/01 05:28:47;;;;;;;;;14.75;13.00;;;;;20.56;39.17;101051.75;5077425;28;45836;-71
2023/05/01 05:31:12;;;;;;;;;15.00;11.75;;;;;20.56;39.42;101055.25;5070829;27;45508;-72
2023/05/01 05:33:38;;;;;;;;;12.00;12.00;;;;;20.57;39.49;101062.28;5077837;28;72379;-72
2023/05/01 05:36:03;;;;;;;;;16.00;14.25;;;;;20.56;39.32;101057.09;5073921;27;46468;-72
2023/05/01 05:38:28;;;;;;;;;12.25;11.75;;;;;20.57;39.41;101064.94;5078922;27;45535;-72
2023/05/01 05:40:54;;;;;;;;;12.50;12.00;;;;;20.56;39.27;101060.59;5071156;27;62206;-72
2023/05/01 05:43:19;;;;;;;;;15.00;13.75;;;;;20.58;39.39;101060.50;5079648;27;45532;-72
2023/05/01 05:45:45;;;;;;;;;17.25;13.75;;;;;20.59;39.29;101062.19;5074242;27;62199;-71
2023/05/01 05:48:10;;;;;;;;;16.75;13.25;;;;;20.58;39.36;101061.34;5078477;27;45311;-71
2023/05/01 05:50:35;;;;;;;;;15.25;13.25;;;;;20.58;39.17;101069.31;5077282;27;45330;-72
2023/05/01 05:53:01;;;;;;;;;13.25;12.25;;;;;20.57;39.26;101056.09;5078286;27;65557;-72
2023/05/01 05:55:27;;;;;;;;;13.00;11.25;;;;;20.58;39.39;101057.84;5073875;28;45696;-72
2023/05/01 05:57:52;;;;;;;;;12.50;12.50;;;;;20.58;39.86;101065.81;5070484;28;45371;-72
2023/05/01 06:00:18;;;;;;;;;16.00;12.75;;;;;20.59;39.40;101062.19;5071725;27;45629;-71
2023/05/01 06:02:43;;;;;;;;;14.00;12.50;;;;;20.58;39.58;101071.97;5075824;28;46112;-72
2023/05/01 06:05:09;;;;;;;;;15.75;12.25;;;;;20.57;39.47;101067.59;5071287;27;45417;-71
2023/05/01 06:07:36;;;;;;;;;15.50;13.50;;;;;20.56;39.57;101059.75;5078513;27;45168;-72
2023/05/01 06:10:04;;;;;;;;;13.25;13.00;;;;;20.55;39.63;101058.88;5073221;27;45395;-71
2023/05/01 06:12:30;;;;;;;;;18.25;13.25;;;;;20.57;39.61;101058.78;5075458;27;46295;-72
2023/05/01 06:14:58;;;;;;;;;11.50;11.00;;;;;20.57;39.49;101072.06;5058851;28;45347;-71
2023/05/01 06:17:24;;;;;;;;;14.25;11.00;;;;;20.57;39.20;101064.09;5077969;28;45339;-72
2023/05/01 06:19:51;;;;;;;;;14.00;12.25;;;;;20.57;39.76;101062.28;5074915;27;59244;-72
2023/05/01 06:22:17;;;;;;;;;12.75;11.00;;;;;20.58;39.81;101069.31;5078070;27;45361;-71
2023/05/01 06:24:42;;;;;;;;;12.50;12.00;;;;;20.55;39.39;101055.34;5057462;27;45272;-72
2023/05/01 06:27:07;;;;;;;;;13.75;12.50;;;;;20.57;39.52;101066.75;5076688;27;68398;-71
2023/05/01 06:29:33;;;;;;;;;14.25;12.75;;;;;20.57;39.48;101069.41;5083810;27;61441;-72
2023/05/01 06:31:58;;;;;;;;;12.75;12.75;;;;;20.57;39.60;101072.06;5076766;27;61400;-72
2023/05/01 06:34:23;;;;;;;;;15.50;12.00;;;;;20.58;39.73;101076.44;5076067;28;71476;-71
2023/05/01 06:36:49;;;;;;;;;12.00;12.00;;;;;20.57;39.56;101069.41;5076167;27;60462;-71
2023/05/01 06:39:14;;;;;;;;;12.50;11.50;;;;;20.57;39.67;101072.91;5078435;27;45374;-71
2023/05/01 06:41:40;;;;;;;;;14.25;12.75;;;;;20.57;39.67;101078.22;5056632;28;49169;-72
2023/05/01 06:44:05;;;;;;;;;13.50;10.75;;;;;20.57;39.69;101077.38;5078803;27;46477;-72
2023/05/01 06:46:30;;;;;;;;;17.50;11.75;;;;;20.58;39.79;101076.44;5054940;28;45402;-72
2023/05/01 06:48:56;;;;;;;;;14.25;11.50;;;;;20.56;39.35;101073.03;5077383;27;65049;-72
2023/05/01 06:51:21;;;;;;;;;14.50;11.00;;;;;20.55;39.54;101076.63;5074891;27;62822;-72
2023/05/01 06:53:46;;;;;;;;;17.50;13.50;;;;;20.57;39.58;101080.03;5080153;27;45353;-72
2023/05/01 06:56:12;;;;;;;;;13.25;13.00;;;;;20.57;39.47;101077.38;5074986;27;46312;-72
2023/05/01 06:58:37;;;;;;;;;12.25;10.25;;;;;20.57;39.77;101074.72;5079151;27;59371;-71
2023/05/01 07:01:03;;;;;;;;;14.00;11.25;;;;;20.57;39.46;101080.88;5075957;28;50696;-71
2023/05/01 07:03:28;;;;;;;;;14.25;13.00;;;;;20.59;39.69;101080.78;5064198;27;45442;-71
2023/05/01 07:05:54;;;;;;;;;14.50;12.75;;;;;20.58;39.38;101082.59;5074365;28;59539;-71
2023/05/01 07:08:20;;;;;;;;;16.50;12.25;;;;;20.58;39.42;101090.59;5071384;27;45442;-71
2023/05/01 07:10:45;;;;;;;;;14.50;14.00;;;;;20.56;39.75;101088.97;5076887;27;45392;-71
2023/05/01 07:13:11;;;;;;;;;15.25;13.50;;;;;20.58;39.58;101087.06;5080052;27;65629;-71
2023/05/01 07:15:36;;;;;;;;;16.75;12.25;;;;;20.57;39.48;101090.69;5079584;27;45468;-71
2023/05/01 07:18:04;;;;;;;;;18.00;13.75;;;;;20.57;39.95;101099.50;5080790;28;45359;-71
2023/05/01 07:20:30;;;;;;;;;12.00;11.50;;;;;20.55;39.48;101104.06;5075048;27;46465;-71
2023/05/01 07:22:56;;;;;;;;;11.75;11.00;;;;;20.56;39.76;101095.16;5071051;27;45894;-71
2023/05/01 07:25:21;;;;;;;;;15.50;13.50;;;;;20.58;39.70;101097.72;5074371;27;68183;-71
2023/05/01 07:27:46;;;;;;;;;16.50;14.75;;;;;20.55;39.91;101101.41;5065492;27;46081;-71
2023/05/01 07:30:12;;;;;;;;;14.00;12.75;;;;;20.56;39.41;101095.16;5079313;27;45965;-71
2023/05/01 07:32:37;;;;;;;;;13.50;12.00;;;;;20.55;39.49;101101.41;5078146;27;66709;-71
2023/05/01 07:35:03;;;;;;;;;12.00;11.25;;;;;20.57;39.54;101107.47;5068396;27;67232;-71
2023/05/01 07:37:28;;;;;;;;;14.50;12.50;;;;;20.58;39.65;101113.66;5076443;27;45454;-71
2023/05/01 07:39:54;;;;;;;;;15.75;11.25;;;;;20.57;39.76;101106.63;5077505;27;45493;-71
2023/05/01 07:42:19;;;;;;;;;18.25;12.50;;;;;20.58;39.45;101100.38;5079973;28;45296;-71
2023/05/01 07:44:45;;;;;;;;;14.75;11.00;;;;;20.59;39.49;101110.03;5078381;27;45209;-71
2023/05/01 07:47:10;;;;;;;;;15.00;12.75;;;;;20.57;39.81;101101.31;5076061;27;58405;-71
2023/05/01 07:49:37;;;;;;;;;11.00;10.00;;;;;20.57;39.54;101103.97;5078237;27;71600;-71
2023/05/01 07:52:02;;;;;;;;;12.00;10.00;;;;;20.58;39.53;101111.84;5070933;27;45658;-71
2023/05/01 07:54:28;;;;;;;;;14.50;13.00;;;;;20.58;39.87;101117.19;5057019;27;45270;-71
2023/05/01 07:56:53;;;;;;;;;13.00;10.00;;;;;20.58;39.64;101106.53;5069704;27;65464;-71
2023/05/01 07:59:18;;;;;;;;;10.50;10.50;;;;;20.59;39.52;101112.69;5077365;27;45379;-71
2023/05/01 08:01:44;;;;;;;;;16.50;13.25;;;;;20.57;39.21;101112.78;5072913;27;72198;-71
2023/05/01 08:04:09;;;;;;;;;12.25;10.50;;;;;20.58;39.39;101117.19;5074854;27;45402;-71
2023/05/01 08:06:35;;;;;;;;;10.50;10.00;;;;;20.59;39.94;101115.34;5076637;27;45299;-71
2023/05/01 08:09:00;;;;;;;;;10.50;10.50;;;;;20.59;39.86;101110.03;5080431;27;60514;-71
2023/05/01 08:11:25;;;;;;;;;12.00;11.25;;;;;20.56;39.73;101102.28;5057187;28;45495;-71
2023/05/01 08:13:51;;;;;;;;;18.00;11.00;;;;;20.60;39.90;101103.78;5061479;28;45292;-71
2023/05/01 08:16:18;;;;;;;;;12.50;10.25;;;;;20.59;40.00;101113.56;5056331;28;45468;-71
2023/05/01 08:18:45;;;;;;;;;9.75;8.75;;;;;20.58;39.57;101111.84;5078701;27;46192;-71
2023/05/01 08:21:10;;;;;;;;;10.25;9.50;;;;;20.60;40.09;101115.25;5074130;28;45243;-71
2023/05/01 08:23:35;;;;;;;;;12.50;10.75;;;;;20.61;39.61;101121.44;5079362;28;45320;-71
2023/05/01 08:26:01;;;;;;;;;13.50;10.75;;;;;20.60;39.86;101128.56;5077319;27;67530;-71
2023/05/01 08:28:26;;;;;;;;;11.00;10.25;;;;;20.60;39.56;101131.22;5078786;27;54943;-71
2023/05/01 08:30:51;;;;;;;;;8.50;8.50;;;;;20.62;39.84;101120.53;5078528;27;45496;-71
2023/05/01 08:33:17;;;;;;;;;10.25;8.00;;;;;20.62;39.54;101121.38;5080503;27;45240;-71
2023/05/01 08:35:43;;;;;;;;;11.75;8.50;;;;;20.61;39.89;101118.78;5076003;27;45286;-71
2023/05/01 08:38:10;;;;;;;;;9.00;9.00;;;;;20.60;39.58;101128.56;5079437;27;45331;-71
2023/05/01 08:40:39;;;;;;;;;12.25;8.50;;;;;20.63;39.52;101124.91;5073874;28;45927;-71
2023/05/01 08:43:05;;;;;;;;;12.75;10.00;;;;;20.62;39.53;101116.06;5075445;27;45594;-71
2023/05/01 08:45:36;;;;;;;;;11.25;10.75;;;;;20.62;40.01;101121.38;5070330;27;45293;-71
2023/05/01 08:48:08;;;;;;;;;9.00;7.75;;;;;20.62;39.41;101129.34;5072222;28;45529;-71
2023/05/01 08:50:37;;;;;;;;;9.25;8.75;;;;;20.62;39.76;101137.31;5073378;28;46319;-71
2023/05/01 08:53:04;;;;;;;;;10.75;10.00;;;;;20.63;39.98;101138.19;5062947;28;45555;-71
2023/05/01 08:55:31;;;;;;;;;9.00;9.00;;;;;20.62;39.51;101139.13;5075099;28;45561;-71
2023/05/01 08:57:57;;;;;;;;;7.25;7.25;;;;;20.63;39.57;101136.38;5074933;28;45430;-71
2023/05/01 09:00:24;;;;;;;;;10.00;10.00;;;;;20.61;39.62;101140.03;5074809;28;45349;-71
2023/05/01 09:02:50;;;;;;;;;8.75;7.00;;;;;20.62;39.71;101141.78;5069674;28;45498;-71
2023/05/01 09:05:17;;;;;;;;;8.00;8.00;;;;;20.64;39.62;101155.84;5069828;28;45492;-71
2023/05/01 09:07:44;;;;;;;;;8.75;8.75;;;;;20.61;39.76;101146.28;5075876;27;47039;-71
2023/05/01 09:10:11;;;;;;;;;10.00;8.50;;;;;20.61;39.45;101148.03;5059827;28;45189;-71
2023/05/01 09:12:37;;;;;;;;;7.25;7.25;;;;;20.64;39.95;101153.19;5073522;27;45235;-71
2023/05/01 09:15:03;;;;;;;;;9.00;8.00;;;;;20.63;39.34;101154.16;5055657;28;45411;-71
2023/05/01 09:17:31;;;;;;;;;9.00;8.00;;;;;20.63;40.08;101155.00;5068496;28;46507;-71
2023/05/01 09:19:56;;;;;;;;;11.50;9.25;;;;;20.62;39.74;101147.97;5076608;27;45963;-71
2023/05/01 09:22:22;;;;;;;;;9.00;9.00;;;;;20.63;39.50;101152.34;5077337;27;45471;-71
2023/05/01 09:24:47;;;;;;;;;9.50;8.75;;;;;20.63;39.91;101152.34;5074926;27;71984;-71
2023/05/01 09:27:13;;;;;;;;;7.75;7.50;;;;;20.62;39.91;101142.66;5059545;28;46890;-71
2023/05/01 09:29:44;;;;;;;;;7.50;6.75;;;;;20.64;39.67;101155.84;5075618;27;46032;-71
2023/05/01 09:32:21;;;;;;;;;7.25;7.25;;;;;20.63;40.16;101148.84;5059741;28;45355;-71
2023/05/01 09:34:47;;;;;;;;;10.50;8.00;;;;;20.62;39.68;101155.94;5067546;28;45435;-72
2023/05/01 09:37:27;;;;;;;;;7.00;6.00;;;;;20.62;39.66;101152.44;5076604;28;45527;-71
2023/05/01 09:40:19;;;;;;;;;8.25;6.50;;;;;20.63;39.98;101154.16;5081662;27;45440;-71
2023/05/01 09:42:50;;;;;;;;;7.00;7.00;;;;;20.63;40.01;101162.97;5073591;27;45469;-71
2023/05/01 09:45:17;;;;;;;;;6.75;6.50;;;;;20.63;40.00;101162.97;5056239;28;45509;-71
2023/05/01 09:47:46;;;;;;;;;8.50;7.00;;;;;20.64;39.69;101171.81;5075211;27;45427;-71
2023/05/01 09:50:28;;;;;;;;;8.00;7.25;;;;;20.62;40.02;101155.94;5074930;28;47621;-71
2023/05/01 09:52:53;;;;;;;;;8.00;6.75;;;;;20.64;40.06;101153.19;5092994;27;45428;-71
2023/05/01 09:55:19;;;;;;;;;8.25;7.25;;;;;20.63;39.80;101157.66;5076004;27;45323;-71
2023/05/01 09:57:45;;;;;;;;;8.50;6.50;;;;;20.64;39.60;101155.84;5078330;27;45424;-71
2023/05/01 10:00:13;;;;;;;;;5.00;5.00;;;;;20.64;39.74;101167.34;5070540;28;45291;-71
2023/05/01 10:02:39;;;;;;;;;6.75;6.25;;;;;20.61;40.15;101150.69;5076102;28;45287;-71
2023/05/01 10:05:06;;;;;;;;;5.50;5.25;;;;;20.64;39.90;101161.16;5058045;28;45514;-72
2023/05/01 10:07:32;;;;;;;;;7.50;6.75;;;;;20.62;40.20;101163.06;5077936;28;46338;-71
2023/05/01 10:09:57;;;;;;;;;8.75;6.50;;;;;20.63;39.99;101162.13;5058789;28;45442;-71
2023/05/01 10:12:27;;;;;;;;;3.50;3.25;;;;;20.63;39.74;101159.47;5077762;27;53325;-72
2023/05/01 10:14:54;;;;;;;;;7.75;7.50;;;;;20.64;39.61;101164.66;5078622;27;45512;-71
2023/05/01 10:17:20;;;;;;;;;8.50;6.25;;;;;20.63;39.90;101162.13;5088621;27;45503;-71
2023/05/01 10:19:46;;;;;;;;;6.75;5.25;;;;;20.64;40.07;101164.66;5076253;27;45370;-71
2023/05/01 10:22:11;;;;;;;;;6.75;6.00;;;;;20.64;39.67;101158.50;5072419;27;45513;-71
2023/05/01 10:24:38;;;;;;;;;6.25;5.50;;;;;20.63;39.85;101157.66;5075156;27;50039;-71
2023/05/01 10:27:05;;;;;;;;;5.50;5.00;;;;;20.63;39.72;101164.78;5070861;27;46475;-72
2023/05/01 10:29:31;;;;;;;;;10.00;6.00;;;;;20.62;39.77;101153.28;5060393;27;45575;-71
2023/05/01 10:31:56;;;;;;;;;7.25;5.00;;;;;20.55;39.63;101143.94;5075367;28;45446;-71
2023/05/01 10:34:23;;;;;;;;;5.75;5.00;;;;;20.62;39.93;101149.78;5081396;27;45305;-71
2023/05/01 10:36:54;;;;;;;;;4.25;4.00;;;;;20.63;40.04;101162.13;5072343;28;46508;-71
2023/05/01 10:39:30;;;;;;;;;8.75;6.00;;;;;20.63;40.08;101146.19;5055423;28;45733;-71
2023/05/01 10:42:09;;;;;;;;;5.00;5.00;;;;;20.64;39.72;101154.03;5085033;27;45614;-71
2023/05/01 10:44:35;;;;;;;;;6.00;5.50;;;;;20.62;39.84;101147.97;5076763;27;45352;-71
2023/05/01 10:47:23;;;;;;;;;5.00;4.50;;;;;20.65;39.68;101160.22;5076275;27;45497;-71
2023/05/01 10:50:03;;;;;;;;;5.00;5.00;;;;;20.65;39.83;101157.56;5070988;27;46006;-71
2023/05/01 10:52:28;;;;;;;;;5.25;5.25;;;;;20.65;39.90;101160.22;5081244;27;45316;-71
2023/05/01 10:55:31;;;;;;;;;7.50;6.00;;;;;20.65;40.16;101154.91;5071180;27;58224;-71
2023/05/01 10:57:57;;;;;;;;;5.25;5.25;;;;;20.63;40.28;101154.16;5073883;27;45537;-72
2023/05/01 11:00:22;;;;;;;;;7.25;5.50;;;;;20.61;39.76;101156.91;5076980;27;45383;-71
2023/05/01 11:02:48;;;;;;;;;5.50;5.00;;;;;20.61;39.74;101148.94;5073559;27;45825;-71
2023/05/01 11:05:13;;;;;;;;;7.75;6.50;;;;;20.65;39.76;101153.09;5077571;27;45300;-71
2023/05/01 11:07:39;;;;;;;;;6.75;5.00;;;;;20.62;39.84;101147.97;5075146;28;45252;-71
2023/05/01 11:10:24;;;;;;;;;6.25;6.00;;;;;20.62;40.21;101152.44;5072427;27;45407;-71
2023/05/01 11:12:51;;;;;;;;;7.25;5.75;;;;;20.64;40.24;101145.22;5071332;28;45480;-71